sensor_id;sensor_type;location;lat;lon;timestamp;P1;durP1;ratioP1;P2;durP2;ratioP2
28623;SDS011;15813;46.932;19.658;2024-01-06T00:02:05;28.88;;;13.90;;
28623;SDS011;15813;46.932;19.658;2024-01-06T00:04:30;34.03;;;14.30;;
28623;SDS011;15813;46.932;19.658;2024-01-06T00:06:55;33.40;;;13.93;;
28623;SDS011;15813;46.932;19.658;2024-01-06T00:09:20;23.40;;;12.23;;
28623;SDS011;15813;46.932;19.658;2024-01-06T00:11:46;26.02;;;12.10;;
28623;SDS011;15813;46.932;19.658;2024-01-06T00:14:11;23.58;;;11.93;;
28623;SDS011;15813;46.932;19.658;2024-01-06T00:16:36;22.50;;;11.43;;
28623;SDS011;15813;46.932;19.658;2024-01-06T00:19:01;24.80;;;12.40;;
28623;SDS011;15813;46.932;19.658;2024-01-06T00:21:27;24.52;;;12.52;;
28623;SDS011;15813;46.932;19.658;2024-01-06T00:23:52;28.17;;;13.15;;
28623;SDS011;15813;46.932;19.658;2024-01-06T00:26:18;22.33;;;11.88;;
28623;SDS011;15813;46.932;19.658;2024-01-06T00:28:43;22.42;;;11.32;;
28623;SDS011;15813;46.932;19.658;2024-01-06T00:31:08;19.40;;;11.30;;
28623;SDS011;15813;46.932;19.658;2024-01-06T00:33:34;26.13;;;10.88;;
28623;SDS011;15813;46.932;19.658;2024-01-06T00:35:59;23.85;;;11.10;;
28623;SDS011;15813;46.932;19.658;2024-01-06T00:38:24;23.23;;;11.45;;
28623;SDS011;15813;46.932;19.658;2024-01-06T00:40:49;26.08;;;10.93;;
28623;SDS011;15813;46.932;19.658;2024-01-06T00:43:15;22.77;;;11.23;;
28623;SDS011;15813;46.932;19.658;2024-01-06T00:45:40;17.42;;;10.52;;
28623;SDS011;15813;46.932;19.658;2024-01-06T00:48:06;21.63;;;10.93;;
28623;SDS011;15813;46.932;19.658;2024-01-06T00:50:31;23.05;;;10.25;;
28623;SDS011;15813;46.932;19.658;2024-01-06T00:52:56;19.25;;;10.52;;
28623;SDS011;15813;46.932;19.658;2024-01-06T00:55:22;21.23;;;10.88;;
28623;SDS011;15813;46.932;19.658;2024-01-06T00:57:48;17.05;;;9.95;;
28623;SDS011;15813;46.932;19.658;2024-01-06T01:00:14;22.25;;;9.60;;
28623;SDS011;15813;46.932;19.658;2024-01-06T01:02:40;22.77;;;10.80;;
28623;SDS011;15813;46.932;19.658;2024-01-06T01:05:05;19.08;;;10.25;;
28623;SDS011;15813;46.932;19.658;2024-01-06T01:07:32;23.13;;;10.43;;
28623;SDS011;15813;46.932;19.658;2024-01-06T01:09:58;22.30;;;10.00;;
28623;SDS011;15813;46.932;19.658;2024-01-06T01:12:23;15.32;;;9.57;;
28623;SDS011;15813;46.932;19.658;2024-01-06T01:14:49;18.67;;;9.60;;
28623;SDS011;15813;46.932;19.658;2024-01-06T01:17:14;21.52;;;9.57;;
28623;SDS011;15813;46.932;19.658;2024-01-06T01:19:39;23.63;;;10.43;;
28623;SDS011;15813;46.932;19.658;2024-01-06T01:22:05;21.20;;;9.82;;
28623;SDS011;15813;46.932;19.658;2024-01-06T01:24:30;22.00;;;9.70;;
28623;SDS011;15813;46.932;19.658;2024-01-06T01:26:55;15.75;;;9.38;;
28623;SDS011;15813;46.932;19.658;2024-01-06T01:29:21;21.80;;;10.23;;
28623;SDS011;15813;46.932;19.658;2024-01-06T01:31:46;20.50;;;10.18;;
28623;SDS011;15813;46.932;19.658;2024-01-06T01:34:12;25.95;;;10.30;;
28623;SDS011;15813;46.932;19.658;2024-01-06T01:36:37;22.33;;;9.63;;
28623;SDS011;15813;46.932;19.658;2024-01-06T01:39:03;24.17;;;9.38;;
28623;SDS011;15813;46.932;19.658;2024-01-06T01:41:28;19.80;;;9.80;;
28623;SDS011;15813;46.932;19.658;2024-01-06T01:43:53;17.67;;;9.60;;
28623;SDS011;15813;46.932;19.658;2024-01-06T01:46:26;20.88;;;9.63;;
28623;SDS011;15813;46.932;19.658;2024-01-06T01:48:52;23.77;;;9.43;;
28623;SDS011;15813;46.932;19.658;2024-01-06T01:51:18;20.13;;;8.80;;
28623;SDS011;15813;46.932;19.658;2024-01-06T01:53:44;17.50;;;9.05;;
28623;SDS011;15813;46.932;19.658;2024-01-06T01:56:10;20.60;;;9.48;;
28623;SDS011;15813;46.932;19.658;2024-01-06T01:58:35;18.65;;;8.95;;
28623;SDS011;15813;46.932;19.658;2024-01-06T02:01:02;20.70;;;9.27;;
28623;SDS011;15813;46.932;19.658;2024-01-06T02:03:27;16.17;;;8.45;;
28623;SDS011;15813;46.932;19.658;2024-01-06T02:05:55;17.65;;;8.85;;
28623;SDS011;15813;46.932;19.658;2024-01-06T02:08:20;17.25;;;9.90;;
28623;SDS011;15813;46.932;19.658;2024-01-06T02:10:45;19.95;;;9.40;;
28623;SDS011;15813;46.932;19.658;2024-01-06T02:13:11;16.27;;;9.43;;
28623;SDS011;15813;46.932;19.658;2024-01-06T02:15:36;23.92;;;10.20;;
28623;SDS011;15813;46.932;19.658;2024-01-06T02:18:02;17.27;;;9.00;;
28623;SDS011;15813;46.932;19.658;2024-01-06T02:20:28;18.05;;;8.55;;
28623;SDS011;15813;46.932;19.658;2024-01-06T02:22:55;14.40;;;8.30;;
28623;SDS011;15813;46.932;19.658;2024-01-06T02:25:22;15.73;;;7.68;;
28623;SDS011;15813;46.932;19.658;2024-01-06T02:27:47;15.52;;;8.20;;
28623;SDS011;15813;46.932;19.658;2024-01-06T02:30:12;15.30;;;8.65;;
28623;SDS011;15813;46.932;19.658;2024-01-06T02:32:37;18.08;;;8.80;;
28623;SDS011;15813;46.932;19.658;2024-01-06T02:35:03;22.83;;;10.02;;
28623;SDS011;15813;46.932;19.658;2024-01-06T02:37:28;20.52;;;9.70;;
28623;SDS011;15813;46.932;19.658;2024-01-06T02:39:53;19.25;;;9.05;;
28623;SDS011;15813;46.932;19.658;2024-01-06T02:42:19;18.65;;;10.00;;
28623;SDS011;15813;46.932;19.658;2024-01-06T02:44:44;23.33;;;9.73;;
28623;SDS011;15813;46.932;19.658;2024-01-06T02:47:09;22.52;;;10.10;;
28623;SDS011;15813;46.932;19.658;2024-01-06T02:49:35;19.75;;;9.38;;
28623;SDS011;15813;46.932;19.658;2024-01-06T02:52:00;16.58;;;8.88;;
28623;SDS011;15813;46.932;19.658;2024-01-06T02:54:25;20.00;;;9.32;;
28623;SDS011;15813;46.932;19.658;2024-01-06T02:56:50;20.55;;;9.25;;
28623;SDS011;15813;46.932;19.658;2024-01-06T02:59:16;16.65;;;8.27;;
28623;SDS011;15813;46.932;19.658;2024-01-06T03:01:41;18.42;;;8.98;;
28623;SDS011;15813;46.932;19.658;2024-01-06T03:04:06;21.42;;;9.23;;
28623;SDS011;15813;46.932;19.658;2024-01-06T03:06:32;25.92;;;10.02;;
28623;SDS011;15813;46.932;19.658;2024-01-06T03:08:58;21.27;;;9.13;;
28623;SDS011;15813;46.932;19.658;2024-01-06T03:11:23;20.73;;;10.07;;
28623;SDS011;15813;46.932;19.658;2024-01-06T03:13:48;15.40;;;8.82;;
28623;SDS011;15813;46.932;19.658;2024-01-06T03:16:14;18.05;;;9.43;;
28623;SDS011;15813;46.932;19.658;2024-01-06T03:18:39;20.48;;;9.75;;
28623;SDS011;15813;46.932;19.658;2024-01-06T03:21:04;17.58;;;9.35;;
28623;SDS011;15813;46.932;19.658;2024-01-06T03:23:29;18.98;;;9.75;;
28623;SDS011;15813;46.932;19.658;2024-01-06T03:25:55;19.95;;;9.82;;
28623;SDS011;15813;46.932;19.658;2024-01-06T03:28:20;18.02;;;8.77;;
28623;SDS011;15813;46.932;19.658;2024-01-06T03:30:45;19.45;;;9.82;;
28623;SDS011;15813;46.932;19.658;2024-01-06T03:33:11;18.42;;;10.02;;
28623;SDS011;15813;46.932;19.658;2024-01-06T03:35:37;21.55;;;10.40;;
28623;SDS011;15813;46.932;19.658;2024-01-06T03:38:02;23.40;;;11.15;;
28623;SDS011;15813;46.932;19.658;2024-01-06T03:40:27;20.90;;;9.07;;
28623;SDS011;15813;46.932;19.658;2024-01-06T03:42:53;19.50;;;8.90;;
28623;SDS011;15813;46.932;19.658;2024-01-06T03:45:19;19.00;;;10.13;;
28623;SDS011;15813;46.932;19.658;2024-01-06T03:47:44;22.70;;;10.48;;
28623;SDS011;15813;46.932;19.658;2024-01-06T03:50:09;22.02;;;10.73;;
28623;SDS011;15813;46.932;19.658;2024-01-06T03:52:34;19.30;;;9.35;;
28623;SDS011;15813;46.932;19.658;2024-01-06T03:55:00;23.92;;;10.38;;
28623;SDS011;15813;46.932;19.658;2024-01-06T03:57:25;21.63;;;10.93;;
28623;SDS011;15813;46.932;19.658;2024-01-06T03:59:50;20.23;;;11.07;;
28623;SDS011;15813;46.932;19.658;2024-01-06T04:02:16;23.95;;;11.10;;
28623;SDS011;15813;46.932;19.658;2024-01-06T04:04:41;20.58;;;12.05;;
28623;SDS011;15813;46.932;19.658;2024-01-06T04:07:06;21.88;;;10.98;;
28623;SDS011;15813;46.932;19.658;2024-01-06T04:09:32;20.20;;;10.85;;
28623;SDS011;15813;46.932;19.658;2024-01-06T04:11:57;14.55;;;9.05;;
28623;SDS011;15813;46.932;19.658;2024-01-06T04:14:22;22.58;;;10.75;;
28623;SDS011;15813;46.932;19.658;2024-01-06T04:16:48;24.05;;;11.38;;
28623;SDS011;15813;46.932;19.658;2024-01-06T04:19:13;20.20;;;11.10;;
28623;SDS011;15813;46.932;19.658;2024-01-06T04:21:40;21.88;;;10.93;;
28623;SDS011;15813;46.932;19.658;2024-01-06T04:24:05;21.67;;;10.18;;
28623;SDS011;15813;46.932;19.658;2024-01-06T04:26:30;19.20;;;10.07;;
28623;SDS011;15813;46.932;19.658;2024-01-06T04:28:55;25.20;;;11.20;;
28623;SDS011;15813;46.932;19.658;2024-01-06T04:31:21;20.00;;;11.05;;
28623;SDS011;15813;46.932;19.658;2024-01-06T04:33:46;16.00;;;9.95;;
28623;SDS011;15813;46.932;19.658;2024-01-06T04:36:11;16.92;;;9.55;;
28623;SDS011;15813;46.932;19.658;2024-01-06T04:38:36;17.63;;;9.80;;
28623;SDS011;15813;46.932;19.658;2024-01-06T04:41:02;16.08;;;10.05;;
28623;SDS011;15813;46.932;19.658;2024-01-06T04:43:27;18.38;;;10.05;;
28623;SDS011;15813;46.932;19.658;2024-01-06T04:45:52;21.50;;;9.85;;
28623;SDS011;15813;46.932;19.658;2024-01-06T04:48:18;18.08;;;9.73;;
28623;SDS011;15813;46.932;19.658;2024-01-06T04:50:43;18.10;;;9.80;;
28623;SDS011;15813;46.932;19.658;2024-01-06T04:53:08;17.25;;;9.82;;
28623;SDS011;15813;46.932;19.658;2024-01-06T04:55:34;18.85;;;10.25;;
28623;SDS011;15813;46.932;19.658;2024-01-06T04:57:59;17.15;;;9.30;;
28623;SDS011;15813;46.932;19.658;2024-01-06T05:00:24;17.90;;;9.35;;
28623;SDS011;15813;46.932;19.658;2024-01-06T05:02:50;20.73;;;11.02;;
28623;SDS011;15813;46.932;19.658;2024-01-06T05:05:16;29.55;;;12.63;;
28623;SDS011;15813;46.932;19.658;2024-01-06T05:07:41;23.27;;;11.18;;
28623;SDS011;15813;46.932;19.658;2024-01-06T05:10:06;19.50;;;10.27;;
28623;SDS011;15813;46.932;19.658;2024-01-06T05:12:32;19.90;;;10.52;;
28623;SDS011;15813;46.932;19.658;2024-01-06T05:14:57;20.02;;;10.38;;
28623;SDS011;15813;46.932;19.658;2024-01-06T05:17:22;23.55;;;10.73;;
28623;SDS011;15813;46.932;19.658;2024-01-06T05:19:48;20.95;;;11.40;;
28623;SDS011;15813;46.932;19.658;2024-01-06T05:22:13;19.67;;;11.13;;
28623;SDS011;15813;46.932;19.658;2024-01-06T05:24:38;22.52;;;11.60;;
28623;SDS011;15813;46.932;19.658;2024-01-06T05:27:04;24.13;;;12.73;;
28623;SDS011;15813;46.932;19.658;2024-01-06T05:29:29;20.98;;;12.10;;
28623;SDS011;15813;46.932;19.658;2024-01-06T05:31:54;20.30;;;11.93;;
28623;SDS011;15813;46.932;19.658;2024-01-06T05:34:20;26.35;;;13.60;;
28623;SDS011;15813;46.932;19.658;2024-01-06T05:36:45;27.80;;;12.88;;
28623;SDS011;15813;46.932;19.658;2024-01-06T05:39:10;24.00;;;13.27;;
28623;SDS011;15813;46.932;19.658;2024-01-06T05:41:39;24.90;;;13.18;;
28623;SDS011;15813;46.932;19.658;2024-01-06T05:44:04;29.55;;;12.90;;
28623;SDS011;15813;46.932;19.658;2024-01-06T05:46:30;29.05;;;13.23;;
28623;SDS011;15813;46.932;19.658;2024-01-06T05:48:55;26.95;;;13.57;;
28623;SDS011;15813;46.932;19.658;2024-01-06T05:51:21;27.65;;;13.80;;
28623;SDS011;15813;46.932;19.658;2024-01-06T05:53:46;21.67;;;11.88;;
28623;SDS011;15813;46.932;19.658;2024-01-06T05:56:12;26.70;;;13.05;;
28623;SDS011;15813;46.932;19.658;2024-01-06T05:58:37;27.80;;;13.60;;
28623;SDS011;15813;46.932;19.658;2024-01-06T06:01:03;25.15;;;13.20;;
28623;SDS011;15813;46.932;19.658;2024-01-06T06:03:28;26.27;;;12.88;;
28623;SDS011;15813;46.932;19.658;2024-01-06T06:05:53;26.50;;;12.93;;
28623;SDS011;15813;46.932;19.658;2024-01-06T06:08:19;21.30;;;12.18;;
28623;SDS011;15813;46.932;19.658;2024-01-06T06:10:44;24.30;;;13.85;;
28623;SDS011;15813;46.932;19.658;2024-01-06T06:13:26;24.75;;;12.70;;
28623;SDS011;15813;46.932;19.658;2024-01-06T06:15:52;24.60;;;13.50;;
28623;SDS011;15813;46.932;19.658;2024-01-06T06:18:17;23.65;;;13.57;;
28623;SDS011;15813;46.932;19.658;2024-01-06T06:20:43;26.77;;;13.55;;
28623;SDS011;15813;46.932;19.658;2024-01-06T06:23:09;21.95;;;13.25;;
28623;SDS011;15813;46.932;19.658;2024-01-06T06:25:34;26.38;;;14.82;;
28623;SDS011;15813;46.932;19.658;2024-01-06T06:27:59;28.98;;;15.40;;
28623;SDS011;15813;46.932;19.658;2024-01-06T06:30:25;26.25;;;14.82;;
28623;SDS011;15813;46.932;19.658;2024-01-06T06:32:51;23.90;;;13.88;;
28623;SDS011;15813;46.932;19.658;2024-01-06T06:35:16;22.25;;;12.57;;
28623;SDS011;15813;46.932;19.658;2024-01-06T06:37:41;24.20;;;14.38;;
28623;SDS011;15813;46.932;19.658;2024-01-06T06:40:07;23.48;;;13.43;;
28623;SDS011;15813;46.932;19.658;2024-01-06T06:42:32;19.48;;;12.50;;
28623;SDS011;15813;46.932;19.658;2024-01-06T06:44:57;26.58;;;13.30;;
28623;SDS011;15813;46.932;19.658;2024-01-06T06:47:23;24.15;;;14.02;;
28623;SDS011;15813;46.932;19.658;2024-01-06T06:49:48;25.25;;;12.63;;
28623;SDS011;15813;46.932;19.658;2024-01-06T06:52:13;32.13;;;14.32;;
28623;SDS011;15813;46.932;19.658;2024-01-06T06:54:39;28.63;;;14.48;;
28623;SDS011;15813;46.932;19.658;2024-01-06T06:57:04;23.38;;;13.02;;
28623;SDS011;15813;46.932;19.658;2024-01-06T06:59:29;30.10;;;14.50;;
28623;SDS011;15813;46.932;19.658;2024-01-06T07:01:55;29.20;;;14.18;;
28623;SDS011;15813;46.932;19.658;2024-01-06T07:04:20;29.50;;;14.93;;
28623;SDS011;15813;46.932;19.658;2024-01-06T07:06:45;30.23;;;15.40;;
28623;SDS011;15813;46.932;19.658;2024-01-06T07:09:10;25.90;;;15.35;;
28623;SDS011;15813;46.932;19.658;2024-01-06T07:11:36;27.73;;;14.85;;
28623;SDS011;15813;46.932;19.658;2024-01-06T07:14:01;24.92;;;15.43;;
28623;SDS011;15813;46.932;19.658;2024-01-06T07:16:26;26.85;;;15.38;;
28623;SDS011;15813;46.932;19.658;2024-01-06T07:18:51;29.70;;;15.98;;
28623;SDS011;15813;46.932;19.658;2024-01-06T07:21:17;27.80;;;15.95;;
28623;SDS011;15813;46.932;19.658;2024-01-06T07:23:42;28.58;;;14.20;;
28623;SDS011;15813;46.932;19.658;2024-01-06T07:26:07;26.98;;;14.30;;
28623;SDS011;15813;46.932;19.658;2024-01-06T07:28:33;29.05;;;15.10;;
28623;SDS011;15813;46.932;19.658;2024-01-06T07:30:59;25.08;;;13.85;;
28623;SDS011;15813;46.932;19.658;2024-01-06T07:33:25;26.25;;;14.90;;
28623;SDS011;15813;46.932;19.658;2024-01-06T07:35:50;30.33;;;14.65;;
28623;SDS011;15813;46.932;19.658;2024-01-06T07:38:16;26.15;;;15.50;;
28623;SDS011;15813;46.932;19.658;2024-01-06T07:40:41;24.98;;;14.90;;
28623;SDS011;15813;46.932;19.658;2024-01-06T07:43:09;25.58;;;14.55;;
28623;SDS011;15813;46.932;19.658;2024-01-06T07:45:34;31.73;;;15.63;;
28623;SDS011;15813;46.932;19.658;2024-01-06T07:47:59;28.80;;;15.43;;
28623;SDS011;15813;46.932;19.658;2024-01-06T07:50:25;25.73;;;14.32;;
28623;SDS011;15813;46.932;19.658;2024-01-06T07:52:50;30.10;;;15.13;;
28623;SDS011;15813;46.932;19.658;2024-01-06T07:55:16;27.08;;;15.93;;
28623;SDS011;15813;46.932;19.658;2024-01-06T07:57:41;32.80;;;16.50;;
28623;SDS011;15813;46.932;19.658;2024-01-06T08:00:07;29.33;;;16.17;;
28623;SDS011;15813;46.932;19.658;2024-01-06T08:02:32;30.77;;;16.55;;
28623;SDS011;15813;46.932;19.658;2024-01-06T08:04:58;27.45;;;15.07;;
28623;SDS011;15813;46.932;19.658;2024-01-06T08:07:23;30.08;;;15.30;;
28623;SDS011;15813;46.932;19.658;2024-01-06T08:09:48;31.80;;;14.90;;
28623;SDS011;15813;46.932;19.658;2024-01-06T08:12:14;34.08;;;16.15;;
28623;SDS011;15813;46.932;19.658;2024-01-06T08:14:40;28.20;;;14.48;;
28623;SDS011;15813;46.932;19.658;2024-01-06T08:17:05;24.98;;;13.75;;
28623;SDS011;15813;46.932;19.658;2024-01-06T08:19:31;25.27;;;14.25;;
28623;SDS011;15813;46.932;19.658;2024-01-06T08:21:58;24.25;;;13.70;;
28623;SDS011;15813;46.932;19.658;2024-01-06T08:24:23;22.08;;;12.70;;
28623;SDS011;15813;46.932;19.658;2024-01-06T08:26:49;22.52;;;12.52;;
28623;SDS011;15813;46.932;19.658;2024-01-06T08:29:15;24.35;;;13.13;;
28623;SDS011;15813;46.932;19.658;2024-01-06T08:31:41;24.33;;;14.20;;
28623;SDS011;15813;46.932;19.658;2024-01-06T08:34:06;26.10;;;15.07;;
28623;SDS011;15813;46.932;19.658;2024-01-06T08:36:33;28.42;;;14.63;;
28623;SDS011;15813;46.932;19.658;2024-01-06T08:38:58;25.65;;;13.95;;
28623;SDS011;15813;46.932;19.658;2024-01-06T08:41:23;24.48;;;13.60;;
28623;SDS011;15813;46.932;19.658;2024-01-06T08:43:48;26.90;;;14.13;;
28623;SDS011;15813;46.932;19.658;2024-01-06T08:46:14;24.48;;;12.93;;
28623;SDS011;15813;46.932;19.658;2024-01-06T08:48:39;30.15;;;14.68;;
28623;SDS011;15813;46.932;19.658;2024-01-06T08:51:04;21.00;;;12.75;;
28623;SDS011;15813;46.932;19.658;2024-01-06T08:53:31;24.27;;;12.27;;
28623;SDS011;15813;46.932;19.658;2024-01-06T08:55:56;22.73;;;12.25;;
28623;SDS011;15813;46.932;19.658;2024-01-06T08:58:21;21.58;;;11.13;;
28623;SDS011;15813;46.932;19.658;2024-01-06T09:00:47;21.25;;;10.80;;
28623;SDS011;15813;46.932;19.658;2024-01-06T09:03:12;24.27;;;12.60;;
28623;SDS011;15813;46.932;19.658;2024-01-06T09:05:37;23.55;;;11.05;;
28623;SDS011;15813;46.932;19.658;2024-01-06T09:08:03;20.60;;;11.68;;
28623;SDS011;15813;46.932;19.658;2024-01-06T09:10:28;22.95;;;11.27;;
28623;SDS011;15813;46.932;19.658;2024-01-06T09:12:54;20.27;;;11.70;;
28623;SDS011;15813;46.932;19.658;2024-01-06T09:15:20;20.35;;;11.65;;
28623;SDS011;15813;46.932;19.658;2024-01-06T09:17:45;21.52;;;11.48;;
28623;SDS011;15813;46.932;19.658;2024-01-06T09:20:10;34.38;;;14.18;;
28623;SDS011;15813;46.932;19.658;2024-01-06T09:22:36;23.52;;;13.38;;
28623;SDS011;15813;46.932;19.658;2024-01-06T09:25:01;23.30;;;12.57;;
28623;SDS011;15813;46.932;19.658;2024-01-06T09:27:26;28.60;;;13.70;;
28623;SDS011;15813;46.932;19.658;2024-01-06T09:29:52;24.23;;;13.10;;
28623;SDS011;15813;46.932;19.658;2024-01-06T09:32:17;25.83;;;13.73;;
28623;SDS011;15813;46.932;19.658;2024-01-06T09:34:42;24.45;;;13.68;;
28623;SDS011;15813;46.932;19.658;2024-01-06T09:37:07;26.00;;;13.52;;
28623;SDS011;15813;46.932;19.658;2024-01-06T09:39:33;23.25;;;13.15;;
28623;SDS011;15813;46.932;19.658;2024-01-06T09:41:58;24.55;;;11.70;;
28623;SDS011;15813;46.932;19.658;2024-01-06T09:44:24;20.33;;;10.25;;
28623;SDS011;15813;46.932;19.658;2024-01-06T09:46:50;13.52;;;9.32;;
28623;SDS011;15813;46.932;19.658;2024-01-06T09:49:20;26.85;;;12.48;;
28623;SDS011;15813;46.932;19.658;2024-01-06T09:51:48;17.95;;;10.60;;
28623;SDS011;15813;46.932;19.658;2024-01-06T09:54:16;17.17;;;10.05;;
28623;SDS011;15813;46.932;19.658;2024-01-06T09:56:47;20.48;;;9.65;;
28623;SDS011;15813;46.932;19.658;2024-01-06T09:59:12;17.45;;;9.10;;
28623;SDS011;15813;46.932;19.658;2024-01-06T10:01:38;14.32;;;8.65;;
28623;SDS011;15813;46.932;19.658;2024-01-06T10:04:04;17.00;;;9.18;;
28623;SDS011;15813;46.932;19.658;2024-01-06T10:06:29;19.02;;;9.15;;
28623;SDS011;15813;46.932;19.658;2024-01-06T10:08:54;18.05;;;9.75;;
28623;SDS011;15813;46.932;19.658;2024-01-06T10:11:20;19.10;;;10.13;;
28623;SDS011;15813;46.932;19.658;2024-01-06T10:13:49;18.75;;;10.82;;
28623;SDS011;15813;46.932;19.658;2024-01-06T10:16:19;21.40;;;10.27;;
28623;SDS011;15813;46.932;19.658;2024-01-06T10:18:44;15.25;;;8.85;;
28623;SDS011;15813;46.932;19.658;2024-01-06T10:21:10;15.55;;;8.20;;
28623;SDS011;15813;46.932;19.658;2024-01-06T10:23:36;17.35;;;8.18;;
28623;SDS011;15813;46.932;19.658;2024-01-06T10:26:01;17.73;;;8.15;;
28623;SDS011;15813;46.932;19.658;2024-01-06T10:28:27;19.60;;;9.82;;
28623;SDS011;15813;46.932;19.658;2024-01-06T10:30:53;22.92;;;8.77;;
28623;SDS011;15813;46.932;19.658;2024-01-06T10:33:19;22.48;;;9.45;;
28623;SDS011;15813;46.932;19.658;2024-01-06T10:35:44;19.33;;;8.18;;
28623;SDS011;15813;46.932;19.658;2024-01-06T10:38:11;18.23;;;7.55;;
28623;SDS011;15813;46.932;19.658;2024-01-06T10:40:36;12.15;;;7.03;;
28623;SDS011;15813;46.932;19.658;2024-01-06T10:43:01;11.57;;;6.80;;
28623;SDS011;15813;46.932;19.658;2024-01-06T10:45:28;12.15;;;7.28;;
28623;SDS011;15813;46.932;19.658;2024-01-06T10:47:55;14.00;;;6.88;;
28623;SDS011;15813;46.932;19.658;2024-01-06T10:50:20;12.50;;;6.47;;
28623;SDS011;15813;46.932;19.658;2024-01-06T10:52:46;12.75;;;6.40;;
28623;SDS011;15813;46.932;19.658;2024-01-06T10:55:12;14.05;;;6.88;;
28623;SDS011;15813;46.932;19.658;2024-01-06T10:57:39;17.55;;;9.50;;
28623;SDS011;15813;46.932;19.658;2024-01-06T11:00:06;14.40;;;7.97;;
28623;SDS011;15813;46.932;19.658;2024-01-06T11:02:31;14.73;;;6.35;;
28623;SDS011;15813;46.932;19.658;2024-01-06T11:04:57;13.77;;;5.55;;
28623;SDS011;15813;46.932;19.658;2024-01-06T11:07:23;11.43;;;5.40;;
28623;SDS011;15813;46.932;19.658;2024-01-06T11:09:56;10.20;;;4.80;;
28623;SDS011;15813;46.932;19.658;2024-01-06T11:12:23;13.55;;;4.85;;
28623;SDS011;15813;46.932;19.658;2024-01-06T11:14:48;13.63;;;5.85;;
28623;SDS011;15813;46.932;19.658;2024-01-06T11:17:32;11.93;;;5.93;;
28623;SDS011;15813;46.932;19.658;2024-01-06T11:20:05;10.90;;;5.85;;
28623;SDS011;15813;46.932;19.658;2024-01-06T11:22:31;10.32;;;7.05;;
28623;SDS011;15813;46.932;19.658;2024-01-06T11:24:57;10.82;;;6.40;;
28623;SDS011;15813;46.932;19.658;2024-01-06T11:27:28;12.57;;;6.88;;
28623;SDS011;15813;46.932;19.658;2024-01-06T11:29:57;9.80;;;5.50;;
28623;SDS011;15813;46.932;19.658;2024-01-06T11:32:29;14.32;;;5.90;;
28623;SDS011;15813;46.932;19.658;2024-01-06T11:34:55;10.13;;;5.10;;
28623;SDS011;15813;46.932;19.658;2024-01-06T11:37:28;15.68;;;6.38;;
28623;SDS011;15813;46.932;19.658;2024-01-06T11:39:59;12.63;;;6.30;;
28623;SDS011;15813;46.932;19.658;2024-01-06T11:42:31;15.20;;;6.85;;
28623;SDS011;15813;46.932;19.658;2024-01-06T11:44:56;11.40;;;6.25;;
28623;SDS011;15813;46.932;19.658;2024-01-06T11:49:53;13.13;;;6.30;;
28623;SDS011;15813;46.932;19.658;2024-01-06T11:52:19;13.00;;;6.03;;
28623;SDS011;15813;46.932;19.658;2024-01-06T11:54:44;11.30;;;6.30;;
28623;SDS011;15813;46.932;19.658;2024-01-06T11:57:10;13.02;;;6.85;;
28623;SDS011;15813;46.932;19.658;2024-01-06T11:59:35;10.18;;;5.85;;
28623;SDS011;15813;46.932;19.658;2024-01-06T12:02:01;17.33;;;6.60;;
28623;SDS011;15813;46.932;19.658;2024-01-06T12:04:26;14.90;;;7.15;;
28623;SDS011;15813;46.932;19.658;2024-01-06T12:06:52;16.17;;;9.63;;
28623;SDS011;15813;46.932;19.658;2024-01-06T12:09:19;20.33;;;9.82;;
28623;SDS011;15813;46.932;19.658;2024-01-06T12:11:45;16.98;;;7.95;;
28623;SDS011;15813;46.932;19.658;2024-01-06T12:14:12;16.98;;;8.80;;
28623;SDS011;15813;46.932;19.658;2024-01-06T12:16:37;18.75;;;8.65;;
28623;SDS011;15813;46.932;19.658;2024-01-06T12:19:02;17.20;;;6.75;;
28623;SDS011;15813;46.932;19.658;2024-01-06T12:21:29;13.00;;;6.00;;
28623;SDS011;15813;46.932;19.658;2024-01-06T12:23:54;11.20;;;5.88;;
28623;SDS011;15813;46.932;19.658;2024-01-06T12:26:19;12.85;;;6.18;;
28623;SDS011;15813;46.932;19.658;2024-01-06T12:28:45;14.15;;;6.05;;
28623;SDS011;15813;46.932;19.658;2024-01-06T12:31:10;12.35;;;6.13;;
28623;SDS011;15813;46.932;19.658;2024-01-06T12:33:38;9.10;;;5.72;;
28623;SDS011;15813;46.932;19.658;2024-01-06T12:36:04;10.48;;;6.05;;
28623;SDS011;15813;46.932;19.658;2024-01-06T12:38:29;9.73;;;5.60;;
28623;SDS011;15813;46.932;19.658;2024-01-06T12:40:55;10.85;;;5.55;;
28623;SDS011;15813;46.932;19.658;2024-01-06T12:43:20;12.30;;;6.22;;
28623;SDS011;15813;46.932;19.658;2024-01-06T12:45:46;15.45;;;6.05;;
28623;SDS011;15813;46.932;19.658;2024-01-06T12:48:11;14.98;;;5.85;;
28623;SDS011;15813;46.932;19.658;2024-01-06T12:50:36;11.68;;;5.80;;
28623;SDS011;15813;46.932;19.658;2024-01-06T12:53:02;11.50;;;6.13;;
28623;SDS011;15813;46.932;19.658;2024-01-06T12:55:27;9.05;;;5.75;;
28623;SDS011;15813;46.932;19.658;2024-01-06T12:57:52;11.35;;;6.18;;
28623;SDS011;15813;46.932;19.658;2024-01-06T13:00:18;13.13;;;5.65;;
28623;SDS011;15813;46.932;19.658;2024-01-06T13:02:43;10.45;;;5.38;;
28623;SDS011;15813;46.932;19.658;2024-01-06T13:05:08;12.00;;;6.10;;
28623;SDS011;15813;46.932;19.658;2024-01-06T13:07:34;10.95;;;5.60;;
28623;SDS011;15813;46.932;19.658;2024-01-06T13:10:00;11.10;;;5.68;;
28623;SDS011;15813;46.932;19.658;2024-01-06T13:12:25;14.70;;;6.20;;
28623;SDS011;15813;46.932;19.658;2024-01-06T13:14:50;13.57;;;6.75;;
28623;SDS011;15813;46.932;19.658;2024-01-06T13:17:16;17.55;;;7.75;;
28623;SDS011;15813;46.932;19.658;2024-01-06T13:19:41;11.40;;;5.68;;
28623;SDS011;15813;46.932;19.658;2024-01-06T13:22:07;11.73;;;6.05;;
28623;SDS011;15813;46.932;19.658;2024-01-06T13:24:32;13.30;;;5.63;;
28623;SDS011;15813;46.932;19.658;2024-01-06T13:26:57;8.98;;;4.85;;
28623;SDS011;15813;46.932;19.658;2024-01-06T13:29:24;9.68;;;5.78;;
28623;SDS011;15813;46.932;19.658;2024-01-06T13:31:49;12.63;;;5.60;;
28623;SDS011;15813;46.932;19.658;2024-01-06T13:34:14;8.70;;;4.95;;
28623;SDS011;15813;46.932;19.658;2024-01-06T13:36:39;11.00;;;4.97;;
28623;SDS011;15813;46.932;19.658;2024-01-06T13:39:06;9.85;;;4.63;;
28623;SDS011;15813;46.932;19.658;2024-01-06T13:41:32;10.90;;;5.50;;
28623;SDS011;15813;46.932;19.658;2024-01-06T13:43:57;11.27;;;5.53;;
28623;SDS011;15813;46.932;19.658;2024-01-06T13:46:23;8.15;;;5.10;;
28623;SDS011;15813;46.932;19.658;2024-01-06T13:48:48;12.32;;;5.82;;
28623;SDS011;15813;46.932;19.658;2024-01-06T13:51:13;10.27;;;5.03;;
28623;SDS011;15813;46.932;19.658;2024-01-06T13:53:39;9.32;;;5.10;;
28623;SDS011;15813;46.932;19.658;2024-01-06T13:56:04;11.68;;;5.72;;
28623;SDS011;15813;46.932;19.658;2024-01-06T13:58:30;14.82;;;6.18;;
28623;SDS011;15813;46.932;19.658;2024-01-06T14:00:56;14.50;;;6.53;;
28623;SDS011;15813;46.932;19.658;2024-01-06T14:03:21;14.85;;;6.97;;
28623;SDS011;15813;46.932;19.658;2024-01-06T14:05:47;15.02;;;6.70;;
28623;SDS011;15813;46.932;19.658;2024-01-06T14:08:12;15.82;;;6.88;;
28623;SDS011;15813;46.932;19.658;2024-01-06T14:10:39;11.90;;;6.07;;